createdAt,value
2017-12-16T00:01:58.970Z,8.55
2017-12-16T00:04:30.438Z,7.95
2017-12-16T00:07:00.190Z,8.65
2017-12-16T00:09:29.190Z,7.05
2017-12-16T00:11:58.245Z,7.68
2017-12-16T00:14:27.989Z,6.80
2017-12-16T00:16:56.978Z,6.68
2017-12-16T00:19:26.910Z,6.80
2017-12-16T00:21:59.710Z,5.87
2017-12-16T00:24:28.695Z,6.45
2017-12-16T00:26:58.597Z,6.30
2017-12-16T00:29:26.618Z,6.62
2017-12-16T00:31:56.585Z,5.93
2017-12-16T00:34:24.605Z,5.97
2017-12-16T00:36:52.613Z,6.15
2017-12-16T00:39:21.625Z,6.65
2017-12-16T00:41:49.617Z,5.60
2017-12-16T00:44:18.402Z,6.32
2017-12-16T00:46:46.449Z,7.05
2017-12-16T00:49:14.449Z,7.72
2017-12-16T00:51:47.021Z,8.80
2017-12-16T00:54:21.889Z,10.88
2017-12-16T00:56:49.897Z,8.20
2017-12-16T00:59:17.889Z,6.57
2017-12-16T01:01:50.324Z,7.82
2017-12-16T01:04:26.657Z,6.90
2017-12-16T01:06:58.049Z,7.80
2017-12-16T01:09:28.057Z,9.05
2017-12-16T01:11:58.085Z,8.77
2017-12-16T01:14:26.109Z,10.70
2017-12-16T01:17:02.696Z,9.38
2017-12-16T01:19:31.689Z,8.25
2017-12-16T01:22:01.646Z,8.50
2017-12-16T01:24:42.685Z,8.60
2017-12-16T01:27:11.469Z,8.50
2017-12-16T01:29:52.317Z,8.52
2017-12-16T01:32:21.229Z,6.85
2017-12-16T01:35:06.269Z,7.80
2017-12-16T01:37:46.229Z,10.15
2017-12-16T01:40:14.281Z,8.77
2017-12-16T01:42:48.437Z,10.02
2017-12-16T01:45:17.449Z,9.27
2017-12-16T01:47:52.969Z,10.05
2017-12-16T01:50:22.933Z,10.07
2017-12-16T01:52:58.501Z,9.32
2017-12-16T01:55:27.453Z,8.32
2017-12-16T01:58:00.101Z,8.05
2017-12-16T02:00:34.761Z,7.95
2017-12-16T02:03:02.765Z,9.77
2017-12-16T02:05:30.796Z,10.82
2017-12-16T02:08:03.280Z,8.85
2017-12-16T02:10:35.817Z,8.25
2017-12-16T02:13:07.593Z,8.27
2017-12-16T02:15:40.153Z,8.65
2017-12-16T02:18:20.693Z,8.07
2017-12-16T02:20:48.701Z,9.00
2017-12-16T02:23:20.593Z,9.60
2017-12-16T02:25:55.861Z,8.52
2017-12-16T02:28:23.881Z,9.98
2017-12-16T02:30:59.269Z,8.57
2017-12-16T02:33:31.513Z,10.15
2017-12-16T02:36:00.287Z,8.90
2017-12-16T02:38:33.045Z,8.60
2017-12-16T02:41:01.049Z,8.93
2017-12-16T02:43:33.541Z,9.25
2017-12-16T02:46:01.541Z,8.98
2017-12-16T02:48:30.533Z,9.43
2017-12-16T02:51:01.480Z,8.35
2017-12-16T02:53:30.260Z,9.57
2017-12-16T02:55:58.275Z,9.30
2017-12-16T02:58:28.968Z,8.43
2017-12-16T03:01:01.649Z,8.23
2017-12-16T03:03:30.672Z,9.38
2017-12-16T03:05:59.444Z,10.38
2017-12-16T03:08:27.445Z,9.30
2017-12-16T03:10:57.244Z,7.75
2017-12-16T03:13:26.029Z,8.57
2017-12-16T03:15:57.956Z,7.75
2017-12-16T03:18:33.904Z,6.20
2017-12-16T03:21:02.716Z,5.70
2017-12-16T03:23:35.372Z,6.70
2017-12-16T03:26:03.384Z,7.72
2017-12-16T03:28:33.188Z,7.75
2017-12-16T03:31:01.977Z,7.78
2017-12-16T03:33:35.369Z,8.40
2017-12-16T03:36:03.368Z,8.32
2017-12-16T03:38:35.101Z,7.37
2017-12-16T03:41:09.080Z,7.93
2017-12-16T03:43:37.125Z,7.25
2017-12-16T03:46:06.128Z,8.23
2017-12-16T03:48:48.700Z,10.57
2017-12-16T03:51:16.720Z,8.98
2017-12-16T03:53:46.738Z,9.73
2017-12-16T03:56:15.760Z,9.70
2017-12-16T03:58:45.540Z,10.15
2017-12-16T04:01:13.548Z,9.32
2017-12-16T04:03:45.608Z,9.70
2017-12-16T04:06:26.100Z,9.40
2017-12-16T04:08:54.108Z,9.50
2017-12-16T04:11:26.780Z,10.35
2017-12-16T04:14:11.992Z,10.75
2017-12-16T04:16:40.772Z,10.20
2017-12-16T04:19:21.604Z,9.65
2017-12-16T04:21:50.348Z,10.27
2017-12-16T04:24:20.112Z,8.60
2017-12-16T04:26:57.208Z,8.15
2017-12-16T04:29:33.852Z,8.80
2017-12-16T04:32:06.768Z,10.50
2017-12-16T04:34:35.724Z,10.70
2017-12-16T04:37:07.408Z,10.27
2017-12-16T04:39:36.380Z,11.75
2017-12-16T04:42:06.400Z,11.95
2017-12-16T04:44:47.734Z,11.80
2017-12-16T04:47:20.764Z,12.48
2017-12-16T04:49:48.795Z,12.18
2017-12-16T04:52:27.832Z,12.43
2017-12-16T04:54:59.840Z,12.07
2017-12-16T04:57:29.848Z,12.45
2017-12-16T04:59:59.867Z,13.40
2017-12-16T05:02:31.928Z,13.13
2017-12-16T05:04:59.965Z,12.68
2017-12-16T05:07:35.855Z,12.88
2017-12-16T05:10:26.827Z,12.45
2017-12-16T05:12:54.883Z,11.85
2017-12-16T05:15:33.004Z,13.00
2017-12-16T05:18:03.780Z,11.75
2017-12-16T05:20:39.416Z,13.75
2017-12-16T05:23:08.227Z,12.43
2017-12-16T05:25:37.196Z,12.30
2017-12-16T05:28:22.448Z,12.75
2017-12-16T05:30:52.431Z,14.45
2017-12-16T05:33:28.151Z,12.13
2017-12-16T05:35:57.125Z,13.20
2017-12-16T05:38:39.508Z,14.82
2017-12-16T05:41:08.543Z,13.98
2017-12-16T05:43:37.511Z,14.30
2017-12-16T05:46:08.767Z,15.63
2017-12-16T05:48:36.823Z,16.00
2017-12-16T05:51:04.839Z,16.40
2017-12-16T05:53:33.639Z,17.10
2017-12-16T05:56:06.776Z,17.05
2017-12-16T05:58:53.047Z,19.20
2017-12-16T06:01:21.048Z,19.37
2017-12-16T06:03:49.063Z,17.40
2017-12-16T06:06:30.771Z,18.42
2017-12-16T06:08:58.775Z,17.10
2017-12-16T06:11:36.571Z,16.33
2017-12-16T06:14:14.235Z,14.98
2017-12-16T06:16:43.282Z,15.65
2017-12-16T06:19:12.257Z,13.50
2017-12-16T06:21:47.395Z,16.67
2017-12-16T06:24:15.407Z,15.32
2017-12-16T06:26:43.419Z,17.48
2017-12-16T06:29:11.464Z,16.10
2017-12-16T06:31:46.187Z,18.37
2017-12-16T06:34:14.207Z,15.95
2017-12-16T06:36:45.950Z,14.40
2017-12-16T06:39:18.535Z,16.65
2017-12-16T06:41:47.524Z,14.63
2017-12-16T06:44:16.543Z,15.85
2017-12-16T06:46:47.243Z,15.25
2017-12-16T06:49:22.147Z,15.80
2017-12-16T06:51:58.119Z,16.92
2017-12-16T06:54:26.131Z,16.15
2017-12-16T06:56:58.887Z,15.45
2017-12-16T06:59:26.897Z,13.70
2017-12-16T07:01:56.663Z,13.77
2017-12-16T07:04:24.679Z,13.45
2017-12-16T07:06:54.358Z,14.20
2017-12-16T07:09:22.375Z,14.23
2017-12-16T07:11:53.867Z,14.73
2017-12-16T07:14:29.371Z,16.10
2017-12-16T07:17:18.337Z,13.40
2017-12-16T07:19:49.847Z,13.75
2017-12-16T07:22:19.655Z,14.25
2017-12-16T07:24:48.482Z,15.90
2017-12-16T07:27:22.026Z,15.13
2017-12-16T07:29:57.362Z,14.23
2017-12-16T07:32:26.355Z,13.60
2017-12-16T07:34:59.055Z,14.93
2017-12-16T07:37:28.859Z,15.25
2017-12-16T07:39:57.819Z,15.90
2017-12-16T07:42:26.803Z,15.45
2017-12-16T07:44:54.839Z,14.20
2017-12-16T07:47:28.587Z,15.77
2017-12-16T07:49:56.661Z,15.68
2017-12-16T07:52:25.651Z,15.25
2017-12-16T07:54:54.670Z,15.57
2017-12-16T07:57:25.394Z,17.80
2017-12-16T07:59:54.379Z,16.95
2017-12-16T08:02:30.523Z,18.08
2017-12-16T08:04:58.530Z,16.48
2017-12-16T08:07:27.315Z,17.35
2017-12-16T08:09:57.230Z,15.55
2017-12-16T08:12:27.010Z,14.93
2017-12-16T08:14:55.065Z,16.42
2017-12-16T08:17:27.063Z,16.15
2017-12-16T08:20:02.363Z,18.52
2017-12-16T08:22:30.395Z,17.27
2017-12-16T08:24:59.170Z,18.33
2017-12-16T08:27:27.946Z,25.40
2017-12-16T08:29:56.915Z,29.40
2017-12-16T08:32:25.706Z,33.03
2017-12-16T08:34:53.713Z,32.83
2017-12-16T08:37:24.427Z,26.37
2017-12-16T08:40:06.434Z,19.17
2017-12-16T08:42:35.413Z,20.52
2017-12-16T08:45:07.502Z,20.58
2017-12-16T08:47:36.267Z,20.37
2017-12-16T08:50:04.318Z,19.60
2017-12-16T08:52:57.638Z,18.70
2017-12-16T08:55:25.647Z,17.42
2017-12-16T08:57:55.391Z,17.50
2017-12-16T09:00:34.466Z,17.37
2017-12-16T09:03:04.370Z,14.80
2017-12-16T09:05:39.882Z,15.68
2017-12-16T09:08:10.569Z,13.77
2017-12-16T09:10:53.331Z,14.60
2017-12-16T09:13:37.186Z,14.55
2017-12-16T09:16:09.430Z,14.93
2017-12-16T09:18:37.438Z,15.27
2017-12-16T09:21:09.134Z,16.20
2017-12-16T09:23:38.050Z,15.90
2017-12-16T09:26:08.754Z,16.92
2017-12-16T09:28:36.769Z,13.48
2017-12-16T09:31:09.273Z,16.10
2017-12-16T09:33:37.274Z,15.80
2017-12-16T09:36:09.702Z,17.77
2017-12-16T09:38:37.701Z,17.23
2017-12-16T09:41:09.359Z,18.60
2017-12-16T09:43:38.142Z,17.55
2017-12-16T09:46:10.007Z,18.08
2017-12-16T09:48:41.765Z,16.55
2017-12-16T09:51:15.505Z,18.40
2017-12-16T09:53:50.992Z,18.40
2017-12-16T09:56:40.029Z,21.60
2017-12-16T09:59:08.042Z,22.60
2017-12-16T10:01:39.482Z,22.40
2017-12-16T10:04:28.342Z,24.00
2017-12-16T10:06:57.269Z,24.73
2017-12-16T10:09:25.288Z,25.73
2017-12-16T10:11:54.202Z,26.20
2017-12-16T10:14:25.358Z,27.08
2017-12-16T10:16:53.369Z,23.83
2017-12-16T10:19:26.906Z,23.55
2017-12-16T10:21:56.809Z,25.75
2017-12-16T10:24:24.810Z,24.75
2017-12-16T10:27:00.250Z,23.35
2017-12-16T10:29:30.254Z,25.40
2017-12-16T10:31:58.266Z,23.17
2017-12-16T10:34:30.229Z,23.55
2017-12-16T10:36:59.997Z,22.17
2017-12-16T10:39:31.558Z,25.48
2017-12-16T10:42:13.581Z,22.85
2017-12-16T10:44:46.745Z,24.70
2017-12-16T10:47:14.741Z,26.92
2017-12-16T10:49:44.506Z,25.62
2017-12-16T10:52:13.497Z,24.33
2017-12-16T10:54:48.405Z,23.70
2017-12-16T10:57:24.373Z,22.37
2017-12-16T10:59:56.226Z,22.80
2017-12-16T11:02:47.325Z,24.40
2017-12-16T11:08:13.625Z,23.15
2017-12-16T11:10:41.637Z,23.87
2017-12-16T11:13:09.637Z,21.83
2017-12-16T11:15:38.549Z,23.67
2017-12-16T11:18:12.353Z,22.42
2017-12-16T11:20:41.269Z,22.65
2017-12-16T11:23:14.710Z,23.33
2017-12-16T11:25:42.729Z,22.58
2017-12-16T11:28:10.741Z,23.08
2017-12-16T11:30:42.976Z,19.80
2017-12-16T11:33:13.677Z,16.83
2017-12-16T11:35:42.680Z,20.73
2017-12-16T11:38:12.713Z,21.95
2017-12-16T11:40:41.489Z,19.98
2017-12-16T11:43:10.397Z,21.12
2017-12-16T11:45:40.213Z,17.58
2017-12-16T11:48:09.989Z,19.62
2017-12-16T11:50:38.029Z,19.55
2017-12-16T11:53:09.709Z,17.35
2017-12-16T11:55:50.845Z,17.65
2017-12-16T11:58:22.969Z,18.40
2017-12-16T12:00:51.958Z,13.68
2017-12-16T12:03:19.949Z,17.48
2017-12-16T12:05:56.045Z,16.02
2017-12-16T12:08:24.057Z,17.52
2017-12-16T12:10:53.993Z,16.83
2017-12-16T12:13:23.813Z,16.65
2017-12-16T12:15:56.241Z,14.48
2017-12-16T12:18:26.269Z,15.70
2017-12-16T12:20:55.176Z,15.75
2017-12-16T12:23:31.921Z,13.75
2017-12-16T12:26:16.249Z,14.13
2017-12-16T12:28:48.178Z,15.77
2017-12-16T12:31:16.234Z,15.40
2017-12-16T12:33:53.264Z,15.10
2017-12-16T12:36:27.096Z,13.85
2017-12-16T12:38:56.093Z,13.85
2017-12-16T12:41:28.765Z,15.27
2017-12-16T12:43:56.821Z,14.13
2017-12-16T12:46:25.681Z,15.27
2017-12-16T12:48:55.584Z,13.75
2017-12-16T12:51:23.685Z,15.32
2017-12-16T12:53:51.676Z,14.43
2017-12-16T12:56:20.665Z,14.82
2017-12-16T12:58:48.689Z,14.02
2017-12-16T13:01:16.725Z,15.63
2017-12-16T13:03:44.737Z,16.12
2017-12-16T13:06:13.677Z,17.75
2017-12-16T13:08:43.705Z,17.30
2017-12-16T13:11:11.728Z,15.68
2017-12-16T13:13:40.708Z,16.65
2017-12-16T13:16:08.764Z,16.75
2017-12-16T13:18:38.520Z,16.70
2017-12-16T13:21:07.344Z,14.00
2017-12-16T13:23:38.556Z,15.23
2017-12-16T13:26:08.588Z,13.85
2017-12-16T13:28:37.524Z,14.65
2017-12-16T13:31:08.320Z,15.38
2017-12-16T13:33:37.089Z,15.75
2017-12-16T13:36:05.114Z,14.20
2017-12-16T13:38:33.156Z,15.70
2017-12-16T13:41:01.957Z,18.73
2017-12-16T13:43:30.736Z,17.55
2017-12-16T13:45:59.512Z,21.30
2017-12-16T13:48:29.184Z,16.62
2017-12-16T13:50:57.197Z,19.33
2017-12-16T13:53:27.876Z,18.80
2017-12-16T13:55:55.880Z,15.48
2017-12-16T13:58:31.828Z,15.73
2017-12-16T14:00:59.847Z,14.70
2017-12-16T14:03:27.851Z,14.90
2017-12-16T14:05:55.876Z,17.98
2017-12-16T14:08:23.888Z,14.95
2017-12-16T14:10:51.899Z,13.52
2017-12-16T14:13:25.716Z,12.18
2017-12-16T14:15:55.529Z,12.48
2017-12-16T14:18:29.400Z,13.05
2017-12-16T14:20:59.416Z,11.90
2017-12-16T14:23:31.168Z,14.30
2017-12-16T14:26:05.580Z,14.93
2017-12-16T14:28:33.607Z,13.93
2017-12-16T14:31:03.568Z,14.73
2017-12-16T14:33:31.588Z,13.82
2017-12-16T14:36:00.364Z,13.68
2017-12-16T14:38:29.136Z,13.48
2017-12-16T14:40:58.088Z,13.85
2017-12-16T14:43:26.104Z,13.52
2017-12-16T14:45:55.095Z,15.30
2017-12-16T14:48:24.055Z,17.50
2017-12-16T14:50:52.056Z,15.48
2017-12-16T14:53:20.839Z,15.30
2017-12-16T14:55:48.839Z,14.77
2017-12-16T14:58:20.127Z,16.25
2017-12-16T15:00:54.316Z,16.70
2017-12-16T15:03:22.733Z,16.40
2017-12-16T15:05:52.631Z,16.02
2017-12-16T15:08:20.647Z,16.02
2017-12-16T15:10:48.667Z,30.12
2017-12-16T15:13:22.743Z,33.13
2017-12-16T15:15:50.779Z,24.25
2017-12-16T15:18:26.219Z,16.80
2017-12-16T15:20:54.248Z,15.52
2017-12-16T15:23:23.156Z,17.20
2017-12-16T15:25:54.708Z,18.80
2017-12-16T15:28:24.444Z,18.58
2017-12-16T15:30:52.455Z,18.25
2017-12-16T15:33:20.482Z,16.95
2017-12-16T15:35:49.384Z,17.33
2017-12-16T15:38:19.147Z,18.23
2017-12-16T15:40:49.083Z,17.25
2017-12-16T15:43:21.744Z,18.10
2017-12-16T15:45:55.395Z,18.87
2017-12-16T15:48:24.155Z,28.65
2017-12-16T15:50:55.787Z,19.73
2017-12-16T15:53:29.487Z,21.67
2017-12-16T15:55:59.515Z,20.20
2017-12-16T15:58:29.524Z,17.25
2017-12-16T16:00:59.551Z,19.05
2017-12-16T16:03:28.531Z,20.88
2017-12-16T16:05:57.526Z,18.55
2017-12-16T16:08:29.183Z,18.15
2017-12-16T16:11:07.659Z,17.55
2017-12-16T16:13:36.791Z,19.00
2017-12-16T16:16:13.118Z,21.90
2017-12-16T16:18:45.034Z,20.55
2017-12-16T16:21:14.003Z,19.27
2017-12-16T16:23:48.451Z,20.75
2017-12-16T16:26:21.411Z,22.02
2017-12-16T16:28:53.375Z,20.70
2017-12-16T16:31:45.063Z,22.00
2017-12-16T16:34:24.527Z,21.75
2017-12-16T16:36:52.531Z,22.23
2017-12-16T16:39:20.534Z,21.75
2017-12-16T16:41:54.099Z,22.08
2017-12-16T16:44:25.835Z,20.80
2017-12-16T16:46:54.843Z,21.17
2017-12-16T16:49:44.698Z,23.58
2017-12-16T16:52:19.107Z,22.02
2017-12-16T16:54:52.793Z,20.62
2017-12-16T16:57:24.714Z,22.73
2017-12-16T16:59:53.987Z,22.58
2017-12-16T17:02:28.679Z,23.70
2017-12-16T17:04:57.592Z,21.15
2017-12-16T17:07:40.687Z,22.35
2017-12-16T17:10:12.874Z,22.23
2017-12-16T17:12:40.891Z,22.85
2017-12-16T17:15:10.659Z,23.73
2017-12-16T17:17:43.283Z,22.92
2017-12-16T17:20:13.262Z,22.55
2017-12-16T17:22:44.625Z,22.35
2017-12-16T17:25:14.630Z,23.25
2017-12-16T17:27:43.602Z,24.08
2017-12-16T17:30:16.910Z,24.65
2017-12-16T17:32:46.923Z,23.48
2017-12-16T17:35:26.368Z,23.08
2017-12-16T17:37:59.042Z,25.83
2017-12-16T17:40:27.079Z,27.85
2017-12-16T17:42:58.058Z,24.12
2017-12-16T17:45:26.062Z,24.12
2017-12-16T17:47:54.846Z,26.67
2017-12-16T17:50:25.526Z,27.27
2017-12-16T17:52:55.470Z,24.40
2017-12-16T17:55:28.950Z,29.35
2017-12-16T17:58:02.486Z,26.60
2017-12-16T18:00:32.255Z,26.45
2017-12-16T18:03:07.390Z,23.08
2017-12-16T18:05:35.394Z,25.80
2017-12-16T18:08:06.075Z,24.90
2017-12-16T18:10:35.159Z,24.70
2017-12-16T18:13:04.082Z,24.35
2017-12-16T18:15:34.005Z,26.05
2017-12-16T18:18:02.023Z,25.00
2017-12-16T18:20:33.818Z,25.80
2017-12-16T18:23:03.742Z,28.73
2017-12-16T18:25:31.775Z,24.67
2017-12-16T18:28:01.527Z,24.35
2017-12-16T18:30:30.438Z,26.27
2017-12-16T18:33:01.147Z,29.27
2017-12-16T18:35:30.142Z,27.37
2017-12-16T18:38:04.602Z,26.87
2017-12-16T18:40:38.346Z,30.17
2017-12-16T18:43:09.506Z,28.50
2017-12-16T18:45:43.179Z,28.10
2017-12-16T18:48:15.979Z,26.58
2017-12-16T18:50:44.018Z,28.00
2017-12-16T18:53:19.203Z,28.75
2017-12-16T18:55:47.234Z,29.98
2017-12-16T18:58:16.162Z,28.77
2017-12-16T19:00:46.166Z,28.10
2017-12-16T19:03:14.294Z,28.67
2017-12-16T19:05:42.274Z,28.00
2017-12-16T19:08:11.198Z,26.87
2017-12-16T19:10:39.230Z,24.45
2017-12-16T19:13:08.130Z,25.52
2017-12-16T19:15:36.142Z,24.85
2017-12-16T19:18:08.184Z,24.42
2017-12-16T19:20:36.214Z,25.15
2017-12-16T19:23:04.231Z,24.58
2017-12-16T19:25:32.262Z,25.37
2017-12-16T19:28:01.202Z,28.10
2017-12-16T19:30:29.246Z,28.15
2017-12-16T19:32:59.224Z,26.35
2017-12-16T19:35:28.082Z,21.48
2017-12-16T19:37:59.137Z,24.92
2017-12-16T19:40:28.976Z,25.37
2017-12-16T19:43:03.330Z,22.98
2017-12-16T19:45:32.326Z,26.08
2017-12-16T19:48:01.334Z,23.77
2017-12-16T19:50:38.722Z,24.65
2017-12-16T19:53:07.719Z,25.15
2017-12-16T19:55:35.726Z,23.90
2017-12-16T19:58:03.766Z,24.90
2017-12-16T20:00:31.774Z,24.27
2017-12-16T20:03:00.704Z,25.80
2017-12-16T20:05:30.746Z,22.73
2017-12-16T20:08:02.886Z,25.73
2017-12-16T20:10:34.666Z,23.67
2017-12-16T20:13:03.625Z,27.08
2017-12-16T20:15:37.534Z,24.63
2017-12-16T20:18:06.534Z,25.80
2017-12-16T20:20:51.564Z,26.30
2017-12-16T20:23:19.610Z,25.77
2017-12-16T20:25:48.557Z,24.52
2017-12-16T20:28:18.489Z,24.75
2017-12-16T20:30:48.481Z,24.27
2017-12-16T20:33:27.302Z,24.90
2017-12-16T20:36:06.130Z,23.70
2017-12-16T20:38:39.646Z,24.10
2017-12-16T20:41:07.665Z,25.12
2017-12-16T20:43:36.594Z,23.48
2017-12-16T20:46:08.433Z,23.45
2017-12-16T20:48:37.381Z,23.15
2017-12-16T20:51:08.089Z,23.12
2017-12-16T20:53:36.985Z,25.35
2017-12-16T20:56:06.046Z,28.55
2017-12-16T20:58:35.690Z,29.50
2017-12-16T21:01:03.709Z,29.20
2017-12-16T21:03:32.802Z,25.48
2017-12-16T21:06:01.577Z,26.62
2017-12-16T21:08:29.586Z,26.37
2017-12-16T21:10:57.599Z,25.60
2017-12-16T21:13:30.533Z,24.35
2017-12-16T21:15:59.545Z,25.20
2017-12-16T21:18:31.097Z,26.20
2017-12-16T21:21:02.558Z,23.85
2017-12-16T21:23:31.561Z,24.90
2017-12-16T21:26:02.745Z,23.40
2017-12-16T21:28:30.861Z,24.33
2017-12-16T21:31:00.765Z,24.35
2017-12-16T21:33:28.789Z,21.23
2017-12-16T21:36:00.821Z,21.40
2017-12-16T21:38:28.825Z,21.23
2017-12-16T21:40:58.763Z,22.70
2017-12-16T21:43:28.681Z,20.48
2017-12-16T21:45:57.689Z,20.65
2017-12-16T21:48:25.706Z,22.50
2017-12-16T21:50:53.749Z,25.83
2017-12-16T21:53:25.688Z,27.10
2017-12-16T21:55:59.413Z,25.27
2017-12-16T21:58:28.388Z,22.52
2017-12-16T22:00:57.381Z,22.87
2017-12-16T22:03:27.409Z,20.88
2017-12-16T22:05:56.432Z,21.45
2017-12-16T22:08:24.465Z,19.77
2017-12-16T22:10:52.488Z,21.58
2017-12-16T22:13:20.521Z,20.15
2017-12-16T22:15:49.428Z,21.10
2017-12-16T22:18:23.809Z,21.17
2017-12-16T22:20:51.849Z,18.77
2017-12-16T22:23:20.929Z,17.90
2017-12-16T22:25:48.957Z,19.33
2017-12-16T22:28:17.941Z,20.62
2017-12-16T22:30:45.990Z,19.33
2017-12-16T22:33:14.045Z,19.98
2017-12-16T22:35:46.533Z,17.98
2017-12-16T22:38:16.521Z,18.77
2017-12-16T22:40:44.544Z,20.10
2017-12-16T22:43:13.441Z,19.20
2017-12-16T22:45:44.644Z,18.90
2017-12-16T22:48:14.601Z,18.52
2017-12-16T22:50:43.576Z,18.00
2017-12-16T22:53:18.704Z,17.95
2017-12-16T22:55:46.712Z,15.85
2017-12-16T22:58:18.652Z,16.35
2017-12-16T23:00:46.665Z,14.80
2017-12-16T23:03:15.597Z,15.18
2017-12-16T23:05:43.617Z,16.62
2017-12-16T23:08:12.396Z,16.77
2017-12-16T23:10:41.197Z,16.25
2017-12-16T23:13:09.233Z,16.77
2017-12-16T23:15:37.243Z,18.55
2017-12-16T23:18:05.261Z,16.17
2017-12-16T23:20:34.205Z,14.00
2017-12-16T23:23:03.132Z,15.23
2017-12-16T23:25:33.144Z,15.88
2017-12-16T23:28:01.184Z,15.43
2017-12-16T23:30:31.144Z,14.85
2017-12-16T23:33:10.831Z,15.55
2017-12-16T23:35:38.880Z,16.60
2017-12-16T23:38:08.668Z,14.82
2017-12-16T23:40:37.668Z,14.75
2017-12-16T23:43:06.576Z,15.23
2017-12-16T23:45:42.280Z,14.75
2017-12-16T23:48:16.060Z,14.43
2017-12-16T23:50:45.056Z,15.82
2017-12-16T23:53:14.094Z,15.82
2017-12-16T23:55:43.093Z,13.35
2017-12-16T23:58:15.904Z,14.10
